| time (UTC) | temp F | wind direction | speed MPH | gust MPH | rain 1hr in | rain 24hr in | rain mn in | humidity % | barometer mb |
| 20260506191551 | 68 | 130 | 8.0 | 19.0 | 0.00 | 0.00 | 0.00 | 80 | 1012.2 |
| 20260506191038 | 70 | 179 | 10.0 | 19.0 | 0.00 | 0.00 | 0.00 | 77 | 1012.3 |
| 20260506190538 | 72 | 148 | 8.0 | 17.0 | 0.00 | 0.00 | 0.00 | 78 | 1012.2 |
| 20260506190048 | 73 | 167 | 7.0 | 17.0 | 0.00 | 0.00 | 0.00 | 78 | 1012.1 |
| 20260506185538 | 74 | 150 | 7.0 | 16.0 | 0.00 | 0.00 | 0.00 | 76 | 1012.2 |
| 20260506185035 | 75 | 157 | 8.0 | 15.0 | 0.00 | 0.00 | 0.00 | 74 | 1012.3 |
| 20260506184551 | 77 | 170 | 2.0 | 7.0 | 0.00 | 0.00 | 0.00 | 76 | 1012.3 |
| 20260506184035 | 78 | 230 | 2.0 | 5.0 | 0.00 | 0.00 | 0.00 | 76 | 1012.3 |
| 20260506183535 | 78 | 216 | 2.0 | 6.0 | 0.00 | 0.00 | 0.00 | 76 | 1012.2 |
| 20260506183047 | 77 | 0 | 2.0 | 7.0 | 0.00 | 0.00 | 0.00 | 78 | 1012.1 |
| 20260506182535 | 77 | 239 | 3.0 | 9.0 | 0.00 | 0.00 | 0.00 | 76 | 1012.1 |
| 20260506182035 | 78 | 257 | 2.0 | 9.0 | 0.00 | 0.00 | 0.00 | 76 | 1012.1 |
| 20260506181548 | 78 | 286 | 2.0 | 8.0 | 0.00 | 0.00 | 0.00 | 75 | 1012.1 |
| 20260506181035 | 78 | 196 | 4.0 | 8.0 | 0.00 | 0.00 | 0.00 | 77 | 1012.0 |
| 20260506180535 | 77 | 245 | 2.0 | 7.0 | 0.00 | 0.00 | 0.00 | 76 | 1011.8 |
| 20260506180051 | 77 | 236 | 1.0 | 7.0 | 0.00 | 0.00 | 0.00 | 75 | 1012.0 |
| 20260506175537 | 77 | 166 | 3.0 | 8.0 | 0.00 | 0.00 | 0.00 | 76 | 1012.0 |
| 20260506175042 | 76 | 173 | 3.0 | 8.0 | 0.00 | 0.00 | 0.00 | 78 | 1012.0 |
| 20260506174544 | 76 | 217 | 3.0 | 9.0 | 0.00 | 0.00 | 0.00 | 76 | 1012.0 |
| 20260506174037 | 76 | 285 | 2.0 | 9.0 | 0.00 | 0.00 | 0.00 | 77 | 1011.9 |
| 20260506173539 | 76 | 307 | 2.0 | 9.0 | 0.00 | 0.00 | 0.00 | 76 | 1011.9 |
| 20260506173048 | 75 | 247 | 3.0 | 7.0 | 0.00 | 0.00 | 0.00 | 77 | 1011.9 |
| 20260506172535 | 75 | 230 | 4.0 | 7.0 | 0.00 | 0.00 | 0.00 | 77 | 1012.0 |
| 20260506172036 | 73 | 242 | 2.0 | 7.0 | 0.00 | 0.00 | 0.00 | 80 | 1012.0 |
| 20260506171553 | 72 | 246 | 2.0 | 7.0 | 0.00 | 0.00 | 0.00 | 81 | 1012.1 |
| 20260506171040 | 71 | 242 | 3.0 | 8.0 | 0.00 | 0.00 | 0.00 | 81 | 1012.1 |
| 20260506170540 | 70 | 261 | 4.0 | 9.0 | 0.00 | 0.00 | 0.00 | 80 | 1012.1 |
| 20260506170052 | 70 | 271 | 4.0 | 12.0 | 0.00 | 0.00 | 0.00 | 79 | 1012.2 |
| 20260506165539 | 70 | 171 | 4.0 | 12.0 | 0.00 | 0.00 | 0.00 | 80 | 1012.4 |
| 20260506165037 | 70 | 223 | 5.0 | 12.0 | 0.00 | 0.00 | 0.00 | 79 | 1012.4 |
| 20260506164552 | 71 | 196 | 3.0 | 10.0 | 0.00 | 0.00 | 0.00 | 81 | 1012.4 |
| 20260506164037 | 70 | 209 | 3.0 | 10.0 | 0.00 | 0.00 | 0.00 | 82 | 1012.3 |
| 20260506163537 | 69 | 224 | 5.0 | 15.0 | 0.00 | 0.00 | 0.00 | 83 | 1012.4 |
| 20260506163052 | 67 | 233 | 6.0 | 15.0 | 0.00 | 0.00 | 0.00 | 83 | 1012.4 |
| 20260506162537 | 67 | 215 | 7.0 | 15.0 | 0.00 | 0.00 | 0.00 | 83 | 1012.5 |
| 20260506162037 | 66 | 187 | 7.0 | 15.0 | 0.00 | 0.00 | 0.00 | 84 | 1012.7 |
| 20260506161553 | 65 | 205 | 8.0 | 18.0 | 0.00 | 0.00 | 0.00 | 84 | 1012.7 |
| 20260506161038 | 65 | 179 | 7.0 | 19.0 | 0.00 | 0.00 | 0.00 | 84 | 1012.6 |
| 20260506160537 | 65 | 181 | 8.0 | 22.0 | 0.00 | 0.00 | 0.00 | 84 | 1013.1 |
| 20260506160047 | 66 | 153 | 9.0 | 22.0 | 0.00 | 0.00 | 0.00 | 83 | 1013.2 |
| 20260506155537 | 68 | 119 | 14.0 | 22.0 | 0.00 | 0.00 | 0.00 | 79 | 1013.7 |
| 20260506155041 | 74 | 178 | 9.0 | 18.0 | 0.00 | 0.00 | 0.00 | 75 | 1013.8 |
| 20260506154601 | 76 | 139 | 1.0 | 4.0 | 0.00 | 0.00 | 0.00 | 83 | 1013.2 |
| 20260506154036 | 76 | 280 | 0.0 | 3.0 | 0.00 | 0.00 | 0.00 | 84 | 1012.4 |
| 20260506153534 | 76 | 244 | 0.0 | 3.0 | 0.00 | 0.00 | 0.00 | 83 | 1012.2 |
| 20260506153048 | 76 | 244 | 1.0 | 3.0 | 0.00 | 0.00 | 0.00 | 83 | 1012.4 |
| 20260506152535 | 76 | 250 | 0.0 | 2.0 | 0.00 | 0.00 | 0.00 | 83 | 1012.3 |
| 20260506152036 | 76 | 0 | 0.0 | 3.0 | 0.00 | 0.00 | 0.00 | 84 | 1012.0 |
| 20260506151558 | 76 | 193 | 0.0 | 3.0 | 0.00 | 0.00 | 0.00 | 83 | 1011.6 |
| 20260506151035 | 76 | 0 | 0.0 | 4.0 | 0.00 | 0.00 | 0.00 | 83 | 1011.6 |
| 20260506150535 | 75 | 0 | 0.0 | 4.0 | 0.00 | 0.00 | 0.00 | 83 | 1011.5 |
| 20260506150052 | 75 | 242 | 0.0 | 4.0 | 0.00 | 0.00 | 0.00 | 85 | 1011.4 |
| 20260506145538 | 75 | 305 | 0.0 | 4.0 | 0.00 | 0.00 | 0.00 | 85 | 1011.4 |
| 20260506145037 | 75 | 0 | 0.0 | 4.0 | 0.00 | 0.00 | 0.00 | 86 | 1011.3 |
| 20260506144555 | 75 | 0 | 1.0 | 4.0 | 0.00 | 0.00 | 0.00 | 87 | 1011.1 |
| 20260506144037 | 74 | 288 | 1.0 | 4.0 | 0.00 | 0.00 | 0.00 | 87 | 1011.1 |
| 20260506143537 | 74 | 322 | 1.0 | 5.0 | 0.00 | 0.00 | 0.00 | 87 | 1011.3 |
| 20260506143051 | 74 | 328 | 0.0 | 5.0 | 0.00 | 0.00 | 0.00 | 87 | 1011.2 |
| 20260506142538 | 74 | 0 | 1.0 | 7.0 | 0.00 | 0.00 | 0.00 | 88 | 1011.0 |
| 20260506142035 | 74 | 318 | 2.0 | 7.0 | 0.00 | 0.00 | 0.00 | 88 | 1010.7 |
| 20260506141549 | 74 | 290 | 2.0 | 7.0 | 0.00 | 0.00 | 0.00 | 89 | 1010.6 |
| 20260506141035 | 73 | 298 | 2.0 | 5.0 | 0.00 | 0.00 | 0.00 | 89 | 1010.8 |
| 20260506140537 | 73 | 292 | 1.0 | 4.0 | 0.00 | 0.00 | 0.00 | 89 | 1011.3 |
| 20260506140058 | 73 | 205 | 1.0 | 3.0 | 0.00 | 0.00 | 0.00 | 89 | 1011.3 |
| 20260506135534 | 73 | 244 | 0.0 | 3.0 | 0.00 | 0.00 | 0.00 | 89 | 1011.3 |
| 20260506135035 | 73 | 228 | 0.0 | 4.0 | 0.00 | 0.00 | 0.00 | 89 | 1011.2 |
| 20260506134552 | 73 | 254 | 0.0 | 4.0 | 0.00 | 0.00 | 0.00 | 89 | 1010.7 |
| 20260506134035 | 73 | 294 | 1.0 | 4.0 | 0.00 | 0.00 | 0.00 | 89 | 1010.2 |
| 20260506133535 | 73 | 312 | 0.0 | 4.0 | 0.00 | 0.00 | 0.00 | 89 | 1010.2 |
| 20260506133049 | 73 | 0 | 1.0 | 4.0 | 0.00 | 0.00 | 0.00 | 89 | 1010.2 |
| 20260506132534 | 73 | 332 | 1.0 | 4.0 | 0.00 | 0.00 | 0.00 | 89 | 1010.2 |
| 20260506132037 | 73 | 295 | 0.0 | 8.0 | 0.00 | 0.00 | 0.00 | 89 | 1010.3 |
| 20260506131545 | 73 | 292 | 1.0 | 8.0 | 0.00 | 0.00 | 0.00 | 89 | 1010.3 |
| 20260506131035 | 73 | 295 | 2.0 | 8.0 | 0.00 | 0.00 | 0.00 | 89 | 1010.2 |
| 20260506130537 | 73 | 284 | 1.0 | 4.0 | 0.00 | 0.00 | 0.00 | 89 | 1010.2 |
| 20260506130053 | 73 | 269 | 1.0 | 4.0 | 0.00 | 0.00 | 0.00 | 89 | 1010.1 |
| 20260506125537 | 73 | 0 | 1.0 | 4.0 | 0.00 | 0.00 | 0.00 | 90 | 1010.0 |
| 20260506125039 | 72 | 310 | 1.0 | 4.0 | 0.00 | 0.00 | 0.00 | 90 | 1009.8 |
| 20260506124541 | 72 | 297 | 1.0 | 4.0 | 0.00 | 0.00 | 0.00 | 90 | 1009.8 |
| 20260506124036 | 72 | 0 | 1.0 | 3.0 | 0.00 | 0.00 | 0.00 | 90 | 1009.7 |
| 20260506123537 | 72 | 312 | 1.0 | 3.0 | 0.00 | 0.00 | 0.00 | 90 | 1009.8 |
| 20260506123049 | 72 | 304 | 1.0 | 3.0 | 0.00 | 0.00 | 0.00 | 90 | 1009.8 |
| 20260506122535 | 72 | 287 | 0.0 | 3.0 | 0.00 | 0.00 | 0.00 | 90 | 1009.8 |
| 20260506122036 | 72 | 286 | 0.0 | 2.0 | 0.00 | 0.00 | 0.00 | 89 | 1009.8 |
| 20260506121550 | 72 | 313 | 0.0 | 3.0 | 0.00 | 0.00 | 0.00 | 89 | 1009.9 |
| 20260506121034 | 72 | 0 | 0.0 | 3.0 | 0.00 | 0.00 | 0.00 | 89 | 1010.0 |
| 20260506120537 | 72 | 320 | 0.0 | 2.0 | 0.00 | 0.00 | 0.00 | 89 | 1010.0 |
| 20260506120049 | 72 | 0 | 0.0 | 2.0 | 0.00 | 0.00 | 0.00 | 89 | 1009.9 |
| 20260506115537 | 72 | 0 | 0.0 | 2.0 | 0.00 | 0.00 | 0.00 | 89 | 1009.9 |
| 20260506115034 | 72 | 320 | 0.0 | 2.0 | 0.00 | 0.00 | 0.00 | 89 | 1009.8 |
| 20260506114556 | 72 | 0 | 0.0 | 2.0 | 0.00 | 0.00 | 0.00 | 89 | 1009.7 |
| 20260506114037 | 72 | 0 | 0.0 | 2.0 | 0.00 | 0.00 | 0.00 | 89 | 1009.7 |
| 20260506113535 | 72 | 0 | 0.0 | 1.0 | 0.00 | 0.00 | 0.00 | 89 | 1009.6 |
| 20260506113047 | 72 | 0 | 0.0 | 1.0 | 0.00 | 0.00 | 0.00 | 89 | 1009.7 |
| 20260506112535 | 72 | 0 | 0.0 | 0.0 | 0.00 | 0.00 | 0.00 | 89 | 1009.8 |
| 20260506112035 | 73 | 0 | 0.0 | 0.0 | 0.00 | 0.00 | 0.00 | 89 | 1009.7 |
| 20260506111551 | 73 | 0 | 0.0 | 0.0 | 0.00 | 0.00 | 0.00 | 89 | 1009.7 |
| 20260506111037 | 73 | 0 | 0.0 | 1.0 | 0.00 | 0.00 | 0.00 | 89 | 1009.6 |
| 20260506110536 | 73 | 0 | 0.0 | 1.0 | 0.00 | 0.00 | 0.00 | 88 | 1009.6 |
| 20260506110046 | 73 | 0 | 0.0 | 1.0 | 0.00 | 0.00 | 0.00 | 88 | 1009.7 |
| 20260506105536 | 73 | 0 | 0.0 | 3.0 | 0.00 | 0.00 | 0.00 | 88 | 1009.6 |
| 20260506105038 | 73 | 0 | 0.0 | 3.0 | 0.00 | 0.00 | 0.00 | 88 | 1009.6 |
| 20260506104554 | 73 | 0 | 0.0 | 4.0 | 0.00 | 0.00 | 0.00 | 88 | 1009.5 |
| 20260506104039 | 73 | 0 | 0.0 | 7.0 | 0.00 | 0.00 | 0.00 | 88 | 1009.4 |
| 20260506103538 | 73 | 0 | 0.0 | 7.0 | 0.00 | 0.00 | 0.00 | 88 | 1009.4 |
| 20260506103044 | 73 | 324 | 0.0 | 5.0 | 0.00 | 0.00 | 0.00 | 88 | 1009.3 |
| 20260506102630 | 73 | 310 | 0.0 | 5.0 | 0.00 | 0.00 | 0.00 | 88 | 1009.2 |
| 20260506102035 | 73 | 352 | 0.0 | 4.0 | 0.00 | 0.00 | 0.00 | 88 | 1009.1 |
| 20260506101552 | 73 | 0 | 0.0 | 5.0 | 0.00 | 0.00 | 0.00 | 88 | 1009.0 |
| 20260506101039 | 73 | 32 | 0.0 | 5.0 | 0.00 | 0.00 | 0.00 | 88 | 1009.0 |
| 20260506100536 | 73 | 0 | 0.0 | 4.0 | 0.00 | 0.00 | 0.00 | 88 | 1009.0 |
| 20260506100051 | 73 | 0 | 0.0 | 4.0 | 0.00 | 0.00 | 0.00 | 88 | 1009.0 |
| 20260506095537 | 73 | 329 | 1.0 | 4.0 | 0.00 | 0.00 | 0.00 | 88 | 1009.0 |
| 20260506095037 | 73 | 332 | 0.0 | 5.0 | 0.00 | 0.00 | 0.00 | 87 | 1009.1 |
| 20260506094551 | 73 | 0 | 1.0 | 5.0 | 0.00 | 0.00 | 0.00 | 87 | 1009.0 |
| 20260506094037 | 73 | 323 | 1.0 | 8.0 | 0.00 | 0.00 | 0.00 | 87 | 1008.8 |
| 20260506093536 | 73 | 334 | 2.0 | 8.0 | 0.00 | 0.00 | 0.00 | 87 | 1008.9 |
| 20260506093048 | 73 | 346 | 1.0 | 8.0 | 0.00 | 0.00 | 0.00 | 87 | 1008.8 |
| 20260506092535 | 73 | 333 | 1.0 | 8.0 | 0.00 | 0.00 | 0.00 | 87 | 1008.7 |
| 20260506092036 | 73 | 327 | 1.0 | 7.0 | 0.00 | 0.00 | 0.00 | 87 | 1008.7 |
| 20260506091545 | 73 | 333 | 1.0 | 7.0 | 0.00 | 0.00 | 0.00 | 87 | 1008.6 |
| 20260506091037 | 73 | 331 | 2.0 | 8.0 | 0.00 | 0.00 | 0.00 | 87 | 1008.4 |
| 20260506090537 | 73 | 331 | 2.0 | 8.0 | 0.00 | 0.00 | 0.00 | 87 | 1008.6 |
| 20260506090044 | 73 | 327 | 1.0 | 8.0 | 0.00 | 0.00 | 0.00 | 88 | 1008.4 |
| 20260506085536 | 73 | 333 | 1.0 | 8.0 | 0.00 | 0.00 | 0.00 | 88 | 1008.3 |
| 20260506085036 | 73 | 345 | 3.0 | 8.0 | 0.00 | 0.00 | 0.00 | 88 | 1008.3 |
| 20260506084553 | 73 | 9 | 2.0 | 8.0 | 0.00 | 0.00 | 0.00 | 88 | 1008.4 |
| 20260506084038 | 73 | 341 | 2.0 | 8.0 | 0.00 | 0.00 | 0.00 | 88 | 1008.3 |
| 20260506083535 | 73 | 0 | 1.0 | 6.0 | 0.00 | 0.00 | 0.00 | 88 | 1008.4 |
| 20260506083052 | 73 | 348 | 2.0 | 6.0 | 0.00 | 0.00 | 0.00 | 88 | 1008.4 |
| 20260506082537 | 73 | 311 | 2.0 | 8.0 | 0.00 | 0.00 | 0.00 | 88 | 1008.5 |
| 20260506082037 | 73 | 325 | 3.0 | 8.0 | 0.00 | 0.00 | 0.00 | 88 | 1008.4 |
| 20260506081545 | 73 | 296 | 1.0 | 8.0 | 0.00 | 0.00 | 0.00 | 88 | 1008.5 |
| 20260506081039 | 73 | 333 | 2.0 | 8.0 | 0.00 | 0.00 | 0.00 | 88 | 1008.5 |
| 20260506080538 | 73 | 342 | 2.0 | 8.0 | 0.00 | 0.00 | 0.00 | 88 | 1008.6 |
| 20260506073048 | 73 | 339 | 2.0 | 8.0 | 0.00 | 0.00 | 0.00 | 87 | 1008.9 |
| 20260506072537 | 73 | 5 | 3.0 | 8.0 | 0.00 | 0.00 | 0.00 | 87 | 1009.2 |
| 20260506072037 | 73 | 15 | 2.0 | 9.0 | 0.00 | 0.00 | 0.00 | 87 | 1009.0 |
| 20260506071542 | 73 | 349 | 3.0 | 9.0 | 0.00 | 0.00 | 0.00 | 87 | 1009.0 |
| 20260506071037 | 73 | 294 | 3.0 | 10.0 | 0.00 | 0.00 | 0.00 | 87 | 1009.0 |
| 20260506070538 | 73 | 309 | 3.0 | 13.0 | 0.00 | 0.00 | 0.00 | 87 | 1009.1 |
| 20260506062036 | 74 | 313 | 4.0 | 12.0 | 0.00 | 0.00 | 0.00 | 86 | 1009.3 |
| 20260506061555 | 74 | 316 | 2.0 | 12.0 | 0.00 | 0.00 | 0.00 | 86 | 1009.0 |
| 20260506061038 | 74 | 25 | 2.0 | 8.0 | 0.00 | 0.00 | 0.00 | 86 | 1009.1 |
| 20260506060537 | 74 | 308 | 2.0 | 8.0 | 0.00 | 0.00 | 0.00 | 86 | 1009.1 |
| 20260506051038 | 74 | 329 | 3.0 | 10.0 | 0.00 | 0.00 | 0.00 | 86 | 1009.3 |
| 20260506050534 | 74 | 331 | 3.0 | 10.0 | 0.00 | 0.00 | 0.00 | 86 | 1009.3 |
| 20260506045040 | 74 | 338 | 1.0 | 10.0 | 0.00 | 0.00 | 0.00 | 86 | 1009.4 |
| 20260506044557 | 74 | 341 | 2.0 | 10.0 | 0.00 | 0.00 | 0.00 | 86 | 1009.3 |
| 20260506044036 | 74 | 322 | 3.0 | 10.0 | 0.00 | 0.00 | 0.00 | 86 | 1009.2 |
| 20260506043535 | 75 | 324 | 4.0 | 11.0 | 0.00 | 0.00 | 0.00 | 86 | 1009.1 |
| 20260506043044 | 75 | 345 | 4.0 | 11.0 | 0.00 | 0.00 | 0.00 | 86 | 1009.2 |
| 20260506042535 | 75 | 340 | 3.0 | 8.0 | 0.00 | 0.00 | 0.00 | 86 | 1009.2 |
| 20260506042036 | 74 | 335 | 2.0 | 9.0 | 0.00 | 0.00 | 0.00 | 86 | 1009.2 |
| 20260506041542 | 74 | 317 | 3.0 | 9.0 | 0.00 | 0.00 | 0.00 | 86 | 1009.0 |
| 20260506041034 | 74 | 309 | 3.0 | 9.0 | 0.00 | 0.00 | 0.00 | 86 | 1008.8 |
| 20260506040535 | 74 | 281 | 2.0 | 8.0 | 0.00 | 0.00 | 0.00 | 86 | 1008.8 |
| 20260506040042 | 74 | 352 | 2.0 | 6.0 | 0.00 | 0.00 | 0.00 | 86 | 1008.8 |
| 20260506035537 | 74 | 327 | 2.0 | 6.0 | 0.00 | 0.00 | 0.00 | 86 | 1008.8 |
| 20260506035035 | 74 | 309 | 1.0 | 5.0 | 0.00 | 0.00 | 0.00 | 86 | 1008.6 |
| 20260506034547 | 74 | 309 | 2.0 | 6.0 | 0.00 | 0.00 | 0.00 | 86 | 1008.5 |
| 20260506034037 | 74 | 327 | 2.0 | 6.0 | 0.00 | 0.00 | 0.00 | 86 | 1008.5 |
| 20260506033537 | 74 | 315 | 1.0 | 5.0 | 0.00 | 0.00 | 0.00 | 86 | 1008.5 |
| 20260506033052 | 74 | 329 | 1.0 | 5.0 | 0.00 | 0.00 | 0.00 | 86 | 1008.6 |
| 20260506032535 | 74 | 0 | 1.0 | 4.0 | 0.00 | 0.00 | 0.00 | 85 | 1008.6 |
| 20260506032035 | 74 | 326 | 1.0 | 4.0 | 0.00 | 0.00 | 0.00 | 85 | 1008.5 |
| 20260506031544 | 74 | 311 | 1.0 | 4.0 | 0.00 | 0.00 | 0.00 | 85 | 1008.3 |
| 20260506031035 | 75 | 330 | 1.0 | 5.0 | 0.00 | 0.00 | 0.00 | 85 | 1008.3 |
| 20260506030539 | 75 | 329 | 1.0 | 5.0 | 0.00 | 0.00 | 0.00 | 84 | 1008.3 |
| 20260506030044 | 75 | 325 | 2.0 | 6.0 | 0.00 | 0.00 | 0.00 | 84 | 1008.3 |
| 20260506025535 | 75 | 311 | 2.0 | 6.0 | 0.00 | 0.00 | 0.00 | 84 | 1008.2 |
| 20260506025038 | 75 | 329 | 1.0 | 5.0 | 0.00 | 0.00 | 0.00 | 83 | 1008.2 |
| 20260506024552 | 75 | 318 | 2.0 | 6.0 | 0.00 | 0.00 | 0.00 | 83 | 1008.2 |
| 20260506024036 | 75 | 327 | 2.0 | 7.0 | 0.00 | 0.00 | 0.00 | 83 | 1008.2 |
| 20260506023536 | 75 | 313 | 2.0 | 7.0 | 0.00 | 0.00 | 0.00 | 83 | 1008.0 |
| 20260506023058 | 75 | 323 | 1.0 | 5.0 | 0.00 | 0.00 | 0.00 | 83 | 1008.1 |
| 20260506022537 | 75 | 319 | 1.0 | 4.0 | 0.00 | 0.00 | 0.00 | 82 | 1007.8 |
| 20260506022034 | 75 | 0 | 1.0 | 3.0 | 0.00 | 0.00 | 0.00 | 82 | 1007.8 |
| 20260506021555 | 75 | 0 | 0.0 | 4.0 | 0.00 | 0.00 | 0.00 | 82 | 1007.7 |
| 20260506021041 | 76 | 0 | 1.0 | 4.0 | 0.00 | 0.00 | 0.00 | 82 | 1007.6 |
| 20260506020539 | 76 | 318 | 1.0 | 5.0 | 0.00 | 0.00 | 0.00 | 81 | 1007.4 |
| 20260506020048 | 76 | 319 | 1.0 | 5.0 | 0.00 | 0.00 | 0.00 | 81 | 1007.4 |
| 20260506015537 | 76 | 304 | 1.0 | 5.0 | 0.00 | 0.00 | 0.00 | 81 | 1007.2 |
| 20260506015035 | 76 | 0 | 1.0 | 5.0 | 0.00 | 0.00 | 0.00 | 80 | 1007.1 |
| 20260506014546 | 76 | 337 | 1.0 | 5.0 | 0.00 | 0.00 | 0.00 | 80 | 1007.1 |
| 20260506014037 | 77 | 331 | 2.0 | 5.0 | 0.00 | 0.00 | 0.00 | 80 | 1007.1 |
| 20260506013537 | 77 | 327 | 1.0 | 5.0 | 0.00 | 0.00 | 0.00 | 79 | 1007.0 |
| 20260506013044 | 77 | 315 | 2.0 | 6.0 | 0.00 | 0.00 | 0.00 | 79 | 1006.9 |
| 20260506012535 | 77 | 317 | 2.0 | 7.0 | 0.00 | 0.00 | 0.00 | 78 | 1006.9 |
| 20260506012039 | 78 | 319 | 2.0 | 7.0 | 0.00 | 0.00 | 0.00 | 78 | 1006.8 |
| 20260506011548 | 78 | 313 | 1.0 | 7.0 | 0.00 | 0.00 | 0.00 | 77 | 1006.9 |
| 20260506011036 | 78 | 0 | 0.0 | 4.0 | 0.00 | 0.00 | 0.00 | 77 | 1006.9 |
| 20260506010537 | 79 | 0 | 0.0 | 3.0 | 0.00 | 0.00 | 0.00 | 76 | 1007.0 |
| 20260506010107 | 79 | 311 | 1.0 | 3.0 | 0.00 | 0.00 | 0.00 | 76 | 1007.0 |
| 20260506005537 | 79 | 0 | 0.0 | 4.0 | 0.00 | 0.00 | 0.00 | 76 | 1007.0 |
| 20260506005037 | 79 | 325 | 1.0 | 4.0 | 0.00 | 0.00 | 0.00 | 75 | 1007.0 |
| 20260506004550 | 80 | 0 | 1.0 | 4.0 | 0.00 | 0.00 | 0.00 | 75 | 1007.0 |
| 20260506004038 | 80 | 327 | 0.0 | 5.0 | 0.00 | 0.00 | 0.00 | 75 | 1007.1 |
| 20260506003534 | 80 | 327 | 1.0 | 5.0 | 0.00 | 0.00 | 0.00 | 75 | 1007.0 |
| 20260506003047 | 80 | 318 | 0.0 | 4.0 | 0.00 | 0.00 | 0.00 | 74 | 1007.0 |
| 20260506002537 | 80 | 0 | 1.0 | 4.0 | 0.00 | 0.00 | 0.00 | 74 | 1007.0 |
| 20260506002038 | 80 | 352 | 1.0 | 4.0 | 0.00 | 0.00 | 0.00 | 74 | 1006.9 |
| 20260506001547 | 81 | 313 | 0.0 | 5.0 | 0.00 | 0.00 | 0.00 | 74 | 1007.0 |
| 20260506001035 | 81 | 324 | 1.0 | 5.0 | 0.00 | 0.00 | 0.00 | 73 | 1007.0 |
| 20260506000538 | 81 | 329 | 1.0 | 7.0 | 0.00 | 0.00 | 0.00 | 73 | 1006.9 |
| 20260506000044 | 81 | 344 | 1.0 | 8.0 | 0.00 | 0.00 | 0.00 | 73 | 1006.7 |
| 20260505235538 | 81 | 0 | 1.0 | 8.0 | 0.00 | 0.00 | 0.00 | 72 | 1006.7 |
| 20260505235035 | 81 | 323 | 2.0 | 9.0 | 0.00 | 0.00 | 0.00 | 72 | 1006.8 |
| 20260505234601 | 81 | 0 | 1.0 | 9.0 | 0.00 | 0.00 | 0.00 | 72 | 1006.8 |
| 20260505234040 | 82 | 351 | 1.0 | 9.0 | 0.00 | 0.00 | 0.00 | 71 | 1006.7 |
| 20260505233541 | 81 | 18 | 1.0 | 9.0 | 0.00 | 0.00 | 0.00 | 72 | 1006.7 |
| 20260505233042 | 81 | 352 | 3.0 | 9.0 | 0.00 | 0.00 | 0.00 | 71 | 1006.6 |
| 20260505232538 | 82 | 329 | 2.0 | 9.0 | 0.00 | 0.00 | 0.00 | 72 | 1006.6 |
| 20260505232040 | 82 | 352 | 2.0 | 9.0 | 0.00 | 0.00 | 0.00 | 71 | 1006.6 |
| 20260505231539 | 82 | 348 | 2.0 | 9.0 | 0.00 | 0.00 | 0.00 | 71 | 1006.6 |
| 20260505231038 | 82 | 339 | 1.0 | 6.0 | 0.00 | 0.00 | 0.00 | 71 | 1006.7 |
| 20260505230537 | 82 | 0 | 1.0 | 5.0 | 0.00 | 0.00 | 0.00 | 72 | 1006.8 |
| 20260505230046 | 82 | 45 | 0.0 | 5.0 | 0.00 | 0.00 | 0.00 | 72 | 1006.8 |
| 20260505225538 | 82 | 27 | 1.0 | 8.0 | 0.00 | 0.00 | 0.00 | 71 | 1006.6 |
| 20260505225037 | 82 | 32 | 1.0 | 8.0 | 0.00 | 0.00 | 0.00 | 72 | 1006.7 |
| 20260505224547 | 82 | 0 | 2.0 | 8.0 | 0.00 | 0.00 | 0.00 | 71 | 1006.7 |
| 20260505224038 | 82 | 55 | 1.0 | 9.0 | 0.00 | 0.00 | 0.00 | 72 | 1006.6 |
| 20260505223537 | 82 | 0 | 2.0 | 9.0 | 0.00 | 0.00 | 0.00 | 71 | 1006.6 |
| 20260505223043 | 82 | 329 | 2.0 | 7.0 | 0.00 | 0.00 | 0.00 | 70 | 1006.6 |
| 20260505222542 | 83 | 340 | 2.0 | 6.0 | 0.00 | 0.00 | 0.00 | 71 | 1006.5 |
| 20260505222038 | 83 | 279 | 1.0 | 7.0 | 0.00 | 0.00 | 0.00 | 69 | 1006.5 |
| 20260505221542 | 83 | 322 | 2.0 | 8.0 | 0.00 | 0.00 | 0.00 | 69 | 1006.4 |
| 20260505221037 | 83 | 323 | 1.0 | 8.0 | 0.00 | 0.00 | 0.00 | 70 | 1006.4 |
| 20260505220534 | 83 | 298 | 2.0 | 9.0 | 0.00 | 0.00 | 0.00 | 69 | 1006.4 |
| 20260505220050 | 83 | 0 | 2.0 | 11.0 | 0.00 | 0.00 | 0.00 | 70 | 1006.4 |
| 20260505215537 | 84 | 313 | 3.0 | 11.0 | 0.00 | 0.00 | 0.00 | 69 | 1006.4 |
| 20260505215039 | 83 | 347 | 2.0 | 10.0 | 0.00 | 0.00 | 0.00 | 69 | 1006.6 |
| 20260505214603 | 83 | 350 | 3.0 | 10.0 | 0.00 | 0.00 | 0.00 | 69 | 1006.7 |
| 20260505214037 | 84 | 337 | 1.0 | 8.0 | 0.00 | 0.00 | 0.00 | 69 | 1006.5 |
| 20260505213541 | 83 | 15 | 1.0 | 10.0 | 0.00 | 0.00 | 0.00 | 70 | 1006.8 |
| 20260505213057 | 83 | 329 | 3.0 | 10.0 | 0.00 | 0.00 | 0.00 | 68 | 1006.8 |
| 20260505212535 | 83 | 333 | 4.0 | 9.0 | 0.00 | 0.00 | 0.00 | 67 | 1006.9 |
| 20260505212038 | 84 | 292 | 2.0 | 11.0 | 0.00 | 0.00 | 0.00 | 68 | 1006.9 |
| 20260505211553 | 84 | 321 | 2.0 | 11.0 | 0.00 | 0.00 | 0.00 | 69 | 1007.0 |
| 20260505211037 | 84 | 17 | 2.0 | 10.0 | 0.00 | 0.00 | 0.00 | 67 | 1007.0 |
| 20260505210534 | 84 | 22 | 2.0 | 10.0 | 0.00 | 0.00 | 0.00 | 68 | 1007.0 |
| 20260505210055 | 84 | 13 | 3.0 | 10.0 | 0.00 | 0.00 | 0.00 | 70 | 1007.0 |
| 20260505205539 | 84 | 348 | 3.0 | 9.0 | 0.00 | 0.00 | 0.00 | 68 | 1007.2 |
| 20260505205040 | 84 | 327 | 2.0 | 9.0 | 0.00 | 0.00 | 0.00 | 67 | 1007.2 |
| 20260505204555 | 84 | 322 | 2.0 | 10.0 | 0.00 | 0.00 | 0.00 | 69 | 1007.4 |
| 20260505204036 | 84 | 31 | 3.0 | 10.0 | 0.00 | 0.00 | 0.00 | 68 | 1007.2 |
| 20260505203536 | 84 | 317 | 2.0 | 11.0 | 0.00 | 0.00 | 0.00 | 70 | 1007.5 |
| 20260505203052 | 83 | 336 | 3.0 | 11.0 | 0.00 | 0.00 | 0.00 | 69 | 1007.5 |
| 20260505202537 | 83 | 312 | 2.0 | 7.0 | 0.00 | 0.00 | 0.00 | 70 | 1007.7 |
| 20260505202036 | 83 | 316 | 2.0 | 11.0 | 0.00 | 0.00 | 0.00 | 70 | 1007.8 |
| 20260505201547 | 83 | 317 | 5.0 | 11.0 | 0.00 | 0.00 | 0.00 | 70 | 1007.8 |
| 20260505201037 | 83 | 5 | 3.0 | 11.0 | 0.00 | 0.00 | 0.00 | 69 | 1007.9 |
| 20260505200535 | 84 | 290 | 2.0 | 9.0 | 0.00 | 0.00 | 0.00 | 70 | 1008.1 |
| 20260505195537 | 84 | 307 | 3.0 | 10.0 | 0.00 | 0.00 | 0.00 | 69 | 1008.0 |
| 20260505195037 | 84 | 348 | 2.0 | 10.0 | 0.00 | 0.00 | 0.00 | 69 | 1008.0 |
| 20260505194549 | 84 | 352 | 2.0 | 9.0 | 0.00 | 0.00 | 0.00 | 68 | 1008.1 |
| 20260505194041 | 84 | 67 | 1.0 | 8.0 | 0.00 | 0.00 | 0.00 | 71 | 1008.3 |
| 20260505193534 | 83 | 336 | 2.0 | 8.0 | 0.00 | 0.00 | 0.00 | 70 | 1008.4 |
| 20260505193042 | 83 | 299 | 2.0 | 10.0 | 0.00 | 0.00 | 0.00 | 70 | 1008.6 |
| 20260505192537 | 83 | 321 | 2.0 | 10.0 | 0.00 | 0.00 | 0.00 | 71 | 1008.6 |
| 20260505192037 | 84 | 344 | 1.0 | 8.0 | 0.00 | 0.00 | 0.00 | 71 | 1008.5 |